Time;durP1;ratioP1;P1;durP2;ratioP2;P2;SDS_P1;SDS_P2;PMS_P1;PMS_P2;Temp;Humidity;BMP_temperature;BMP_pressure;BME280_temperature;BME280_humidity;BME280_pressure;Samples;Min_cycle;Max_cycle;Signal;HPM_P1;HPM_P2
2023/11/14 00:02:18;;;;;;;20.80;5.53;;;11.80;1.00;;;;;;4913974;29;20472;-85
2023/11/14 00:04:43;;;;;;;22.57;4.60;;;11.80;1.00;;;;;;4917465;29;20198;-84
2023/11/14 00:07:09;;;;;;;27.90;5.20;;;11.80;1.00;;;;;;4920455;29;20193;-86
2023/11/14 00:09:34;;;;;;;21.73;4.83;;;11.80;1.00;;;;;;4925066;29;20253;-85
2023/11/14 00:12:00;;;;;;;30.17;5.87;;;11.70;1.00;;;;;;4925611;29;20250;-86
2023/11/14 00:14:26;;;;;;;25.00;6.00;;;11.70;1.00;;;;;;4925121;29;20207;-86
2023/11/14 00:16:52;;;;;;;26.10;5.13;;;11.70;1.00;;;;;;4924032;29;20447;-86
2023/11/14 00:19:20;;;;;;;20.23;4.90;;;11.70;1.00;;;;;;4922779;29;20211;-86
2023/11/14 00:21:47;;;;;;;19.30;5.30;;;11.70;1.00;;;;;;4923531;29;20191;-86
2023/11/14 00:24:12;;;;;;;30.67;5.10;;;11.70;13.40;;;;;;4925444;29;20439;-85
2023/11/14 00:26:38;;;;;;;27.53;5.53;;;11.70;16.00;;;;;;4924831;29;20470;-86
2023/11/14 00:29:05;;;;;;;21.97;5.57;;;11.70;6.60;;;;;;4923717;29;20214;-85
2023/11/14 00:31:30;;;;;;;28.87;5.30;;;11.70;2.40;;;;;;4923660;29;20870;-85
2023/11/14 00:33:56;;;;;;;28.27;5.53;;;11.70;30.20;;;;;;4929010;29;20443;-85
2023/11/14 00:36:21;;;;;;;20.17;5.30;;;11.70;6.90;;;;;;4914742;29;20307;-85
2023/11/14 00:38:47;;;;;;;23.67;5.77;;;11.70;1.00;;;;;;4920630;29;20214;-86
2023/11/14 00:41:12;;;;;;;22.03;5.30;;;11.70;1.00;;;;;;4924699;29;20190;-88
2023/11/14 00:43:38;;;;;;;22.17;4.60;;;11.70;1.00;;;;;;4924894;29;20318;-86
2023/11/14 00:46:09;;;;;;;24.20;4.60;;;11.70;1.00;;;;;;4924769;29;20189;-86
2023/11/14 00:48:35;;;;;;;49.90;6.27;;;11.70;1.00;;;;;;4923478;29;20202;-87
2023/11/14 00:51:00;;;;;;;32.37;5.53;;;11.70;1.00;;;;;;4922377;29;20439;-84
2023/11/14 00:53:26;;;;;;;26.50;5.33;;;11.70;1.00;;;;;;4924106;29;20194;-85
2023/11/14 00:55:51;;;;;;;22.10;4.53;;;11.70;35.10;;;;;;4914980;29;20187;-86
2023/11/14 00:58:17;;;;;;;27.47;6.07;;;11.70;54.60;;;;;;4922090;29;20224;-85
2023/11/14 01:00:42;;;;;;;22.60;5.50;;;11.70;61.00;;;;;;4924027;29;20873;-86
2023/11/14 01:03:08;;;;;;;26.33;5.70;;;11.70;26.10;;;;;;4922642;29;20246;-86
2023/11/14 01:05:33;;;;;;;32.53;6.50;;;11.70;49.70;;;;;;4916460;29;20550;-87
2023/11/14 01:07:59;;;;;;;23.07;4.90;;;11.70;61.80;;;;;;4917172;29;20332;-85
2023/11/14 01:10:25;;;;;;;26.93;5.50;;;11.70;72.70;;;;;;4923364;29;20286;-86
2023/11/14 01:12:51;;;;;;;33.97;7.10;;;11.70;99.90;;;;;;4925277;29;20191;-84
2023/11/14 01:15:16;;;;;;;21.00;5.10;;;11.70;94.30;;;;;;4924480;29;20450;-87
2023/11/14 01:17:42;;;;;;;24.87;5.27;;;11.70;99.90;;;;;;4926166;29;20214;-85
2023/11/14 01:20:11;;;;;;;28.40;5.47;;;11.70;99.90;;;;;;4926137;29;20677;-86
2023/11/14 01:22:36;;;;;;;29.67;6.10;;;11.60;90.60;;;;;;4924363;29;20587;-87
2023/11/14 01:25:02;;;;;;;31.60;5.23;;;11.60;73.50;;;;;;4925904;29;20434;-86
2023/11/14 01:27:27;;;;;;;23.23;5.63;;;11.60;57.30;;;;;;4925870;29;20273;-87
2023/11/14 01:29:53;;;;;;;26.10;6.43;;;11.60;51.90;;;;;;4926129;29;20250;-85
2023/11/14 01:32:18;;;;;;;17.67;4.27;;;11.60;77.30;;;;;;4922341;29;20222;-85
2023/11/14 01:34:44;;;;;;;22.70;4.97;;;11.60;99.90;;;;;;4920632;29;20230;-86
2023/11/14 01:37:09;;;;;;;26.23;4.83;;;11.50;99.90;;;;;;4908887;29;20191;-86
2023/11/14 01:39:35;;;;;;;33.07;6.43;;;11.50;99.90;;;;;;4921711;29;20313;-85
2023/11/14 01:42:01;;;;;;;26.30;4.97;;;11.50;99.90;;;;;;4915412;29;20699;-86
2023/11/14 01:44:27;;;;;;;23.87;5.60;;;11.50;99.90;;;;;;4922125;29;20191;-87
2023/11/14 01:46:55;;;;;;;29.53;6.17;;;11.50;99.90;;;;;;4925010;29;20449;-86
2023/11/14 01:49:22;;;;;;;32.30;4.93;;;11.50;99.90;;;;;;4925825;29;20211;-86
2023/11/14 01:51:47;;;;;;;26.37;5.77;;;11.50;99.90;;;;;;4925525;29;20443;-85
2023/11/14 01:54:15;;;;;;;23.80;4.23;;;11.50;99.90;;;;;;4925858;29;20793;-87
2023/11/14 01:56:42;;;;;;;26.30;4.60;;;11.50;99.90;;;;;;4920063;29;20186;-85
2023/11/14 01:59:08;;;;;;;31.60;5.37;;;11.50;99.90;;;;;;4924262;29;20592;-86
2023/11/14 02:01:34;;;;;;;25.33;5.27;;;11.50;99.90;;;;;;4921725;29;20435;-88
2023/11/14 02:04:00;;;;;;;28.20;5.70;;;11.50;99.90;;;;;;4925150;29;20490;-88
2023/11/14 02:06:27;;;;;;;24.53;6.03;;;11.50;99.90;;;;;;4919082;29;20442;-86
2023/11/14 02:08:53;;;;;;;26.57;5.20;;;11.50;99.90;;;;;;4922640;29;20482;-87
2023/11/14 02:11:19;;;;;;;38.03;6.67;;;11.50;99.90;;;;;;4923676;29;20454;-88
2023/11/14 02:13:45;;;;;;;22.83;4.90;;;11.60;99.90;;;;;;4925269;29;20505;-86
2023/11/14 02:16:12;;;;;;;23.80;5.30;;;11.60;93.30;;;;;;4923414;29;20286;-87
2023/11/14 02:18:37;;;;;;;21.27;5.20;;;11.60;99.90;;;;;;4919731;29;20470;-87
2023/11/14 02:21:03;;;;;;;29.53;8.27;;;11.50;99.90;;;;;;4924357;29;20453;-87
2023/11/14 02:23:31;;;;;;;27.87;5.13;;;11.50;99.90;;;;;;4924877;29;20829;-88
2023/11/14 02:25:56;;;;;;;21.47;4.30;;;11.50;98.00;;;;;;4925393;29;20446;-87
2023/11/14 02:28:22;;;;;;;20.27;5.27;;;11.50;93.40;;;;;;4923700;29;20550;-87
2023/11/14 02:30:47;;;;;;;24.17;4.70;;;11.50;99.90;;;;;;4923893;29;20209;-87
2023/11/14 02:33:13;;;;;;;31.40;5.13;;;11.60;99.90;;;;;;4924453;29;20211;-88
2023/11/14 02:35:39;;;;;;;28.30;6.97;;;11.60;99.90;;;;;;4915557;29;20183;-86
2023/11/14 02:38:04;;;;;;;29.33;5.23;;;11.60;99.90;;;;;;4911557;29;20261;-84
2023/11/14 02:40:30;;;;;;;25.50;5.63;;;11.70;99.90;;;;;;4923149;29;20195;-84
2023/11/14 02:42:55;;;;;;;30.23;7.03;;;11.70;99.90;;;;;;4920402;29;20277;-86
2023/11/14 02:45:21;;;;;;;22.40;5.87;;;11.70;93.60;;;;;;4918707;29;20194;-86
2023/11/14 02:47:48;;;;;;;25.53;4.90;;;11.70;63.30;;;;;;4920410;29;20206;-85
2023/11/14 02:50:33;;;;;;;18.37;4.97;;;11.70;65.10;;;;;;4920890;29;20454;-86
2023/11/14 02:52:59;;;;;;;24.17;5.13;;;11.70;87.70;;;;;;4916832;29;20813;-85
2023/11/14 02:55:24;;;;;;;26.13;5.07;;;11.60;77.10;;;;;;4922324;29;20457;-84
2023/11/14 02:57:50;;;;;;;26.53;5.20;;;11.60;99.30;;;;;;4921890;29;20554;-85
2023/11/14 03:00:16;;;;;;;21.63;5.00;;;11.60;99.90;;;;;;4913900;29;20238;-86
2023/11/14 03:02:43;;;;;;;24.57;6.87;;;11.60;99.90;;;;;;4908141;29;20717;-85
2023/11/14 03:05:08;;;;;;;29.20;5.20;;;11.60;99.90;;;;;;4922635;29;20182;-85
2023/11/14 03:07:34;;;;;;;21.43;5.37;;;11.60;99.90;;;;;;4917368;29;20565;-86
2023/11/14 03:10:03;;;;;;;27.50;5.67;;;11.60;99.90;;;;;;4922602;29;20641;-85
2023/11/14 03:12:29;;;;;;;26.63;6.07;;;11.60;99.90;;;;;;4920803;29;20190;-87
2023/11/14 03:14:55;;;;;;;18.83;4.60;;;11.60;99.90;;;;;;4920373;29;20485;-86
2023/11/14 03:17:20;;;;;;;37.60;7.07;;;11.60;99.90;;;;;;4920841;29;20960;-87
2023/11/14 03:19:47;;;;;;;25.27;7.80;;;11.60;99.90;;;;;;4920767;29;20187;-84
2023/11/14 03:22:13;;;;;;;32.43;6.33;;;11.60;99.90;;;;;;4921250;29;20206;-85
2023/11/14 03:24:39;;;;;;;27.30;5.83;;;11.60;99.90;;;;;;4922267;29;20515;-84
2023/11/14 03:27:05;;;;;;;20.13;5.30;;;11.60;99.90;;;;;;4920390;29;20214;-85
2023/11/14 03:29:31;;;;;;;21.83;5.90;;;11.60;99.90;;;;;;4921719;29;20997;-87
2023/11/14 03:31:57;;;;;;;30.27;5.67;;;11.60;99.90;;;;;;4919440;29;21039;-85
2023/11/14 03:34:22;;;;;;;29.17;5.87;;;11.60;99.90;;;;;;4919871;29;20509;-87
2023/11/14 03:36:56;;;;;;;29.90;6.57;;;11.60;99.90;;;;;;4912908;29;20194;-85
2023/11/14 03:39:21;;;;;;;24.73;5.70;;;11.60;99.90;;;;;;4918754;29;20429;-85
2023/11/14 03:41:47;;;;;;;23.37;5.37;;;11.60;99.90;;;;;;4922045;29;20500;-85
2023/11/14 03:44:13;;;;;;;16.50;4.57;;;11.60;99.90;;;;;;4925710;29;20454;-86
2023/11/14 03:46:39;;;;;;;21.17;5.70;;;11.60;99.90;;;;;;4924114;29;20194;-86
2023/11/14 03:49:04;;;;;;;35.53;5.20;;;11.60;99.90;;;;;;4923483;29;20270;-86
2023/11/14 03:51:30;;;;;;;28.63;5.03;;;11.60;99.90;;;;;;4924841;29;20449;-86
2023/11/14 03:53:56;;;;;;;24.93;5.30;;;11.60;99.90;;;;;;4925213;29;20576;-85
2023/11/14 03:56:21;;;;;;;26.20;4.50;;;11.60;99.90;;;;;;4923364;29;20631;-87
2023/11/14 03:58:49;;;;;;;22.73;5.10;;;11.60;99.90;;;;;;4917770;29;20217;-86
2023/11/14 04:01:17;;;;;;;34.10;4.97;;;11.70;99.90;;;;;;4926251;29;20711;-86
2023/11/14 04:03:43;;;;;;;24.17;4.57;;;11.70;99.90;;;;;;4925782;29;20550;-86
2023/11/14 04:06:10;;;;;;;19.30;4.67;;;11.70;99.90;;;;;;4927801;29;20439;-85
2023/11/14 04:08:36;;;;;;;21.70;5.97;;;11.70;99.90;;;;;;4922564;29;20474;-86
2023/11/14 04:11:02;;;;;;;33.83;7.27;;;11.80;99.90;;;;;;4925436;29;20445;-87
2023/11/14 04:13:27;;;;;;;29.07;5.90;;;11.80;99.90;;;;;;4925994;29;20194;-86
2023/11/14 04:15:53;;;;;;;25.23;5.20;;;11.80;62.70;;;;;;4925748;29;20597;-87
2023/11/14 04:18:18;;;;;;;18.67;4.60;;;11.80;26.20;;;;;;4926791;29;20226;-86
2023/11/14 04:20:46;;;;;;;25.83;6.60;;;11.80;22.90;;;;;;4925560;29;20209;-87
2023/11/14 04:23:11;;;;;;;18.90;5.10;;;11.90;38.50;;;;;;4927766;29;20235;-86
2023/11/14 04:25:37;;;;;;;24.40;4.83;;;11.90;1.00;;;;;;4921627;29;20446;-86
2023/11/14 04:28:02;;;;;;;17.07;4.80;;;11.90;1.00;;;;;;4924516;29;20215;-87
2023/11/14 04:30:28;;;;;;;21.37;5.93;;;11.90;1.00;;;;;;4926912;29;20194;-88
2023/11/14 04:32:54;;;;;;;28.33;4.80;;;11.90;8.00;;;;;;4926706;29;20214;-86
2023/11/14 04:35:19;;;;;;;24.73;6.23;;;11.90;12.90;;;;;;4918746;29;20191;-85
2023/11/14 04:37:47;;;;;;;30.23;5.50;;;11.90;26.40;;;;;;4918247;29;20217;-86
2023/11/14 04:40:13;;;;;;;21.40;6.10;;;11.90;20.10;;;;;;4924076;29;20704;-87
2023/11/14 04:42:39;;;;;;;20.13;5.03;;;11.90;17.40;;;;;;4925396;29;20510;-87
2023/11/14 04:45:06;;;;;;;22.60;6.20;;;12.00;5.40;;;;;;4922604;29;20203;-86
2023/11/14 04:47:32;;;;;;;22.43;5.83;;;12.00;1.00;;;;;;4924097;29;20191;-86
2023/11/14 04:49:58;;;;;;;26.10;5.60;;;12.00;1.00;;;;;;4925629;29;20447;-85
2023/11/14 04:52:23;;;;;;;21.17;5.20;;;12.00;1.00;;;;;;4924095;29;20442;-87
2023/11/14 04:54:49;;;;;;;17.70;5.33;;;12.10;1.00;;;;;;4924076;29;20234;-87
2023/11/14 04:57:15;;;;;;;22.73;5.60;;;12.10;1.00;;;;;;4925231;29;20257;-86
2023/11/14 04:59:40;;;;;;;25.80;5.63;;;12.10;1.00;;;;;;4920988;29;20704;-87
2023/11/14 05:02:06;;;;;;;24.07;5.40;;;12.10;1.00;;;;;;4909241;29;20223;-88
2023/11/14 05:04:31;;;;;;;27.63;5.70;;;12.20;1.00;;;;;;4923258;29;20219;-85
2023/11/14 05:06:57;;;;;;;26.57;5.30;;;12.20;1.00;;;;;;4919381;29;20191;-87
2023/11/14 05:09:23;;;;;;;21.87;5.63;;;12.20;1.00;;;;;;4921665;29;20713;-88
2023/11/14 05:11:48;;;;;;;23.83;4.17;;;12.20;1.00;;;;;;4924495;29;20251;-88
2023/11/14 05:14:14;;;;;;;23.37;5.13;;;12.20;1.00;;;;;;4919743;29;20498;-86
2023/11/14 05:16:40;;;;;;;23.67;5.70;;;12.20;1.00;;;;;;4921564;29;20254;-88
2023/11/14 05:19:07;;;;;;;31.30;5.80;;;12.20;1.00;;;;;;4921273;29;20200;-87
2023/11/14 05:21:33;;;;;;;27.30;5.10;;;12.20;1.00;;;;;;4922571;29;20431;-86
2023/11/14 05:23:59;;;;;;;25.40;4.97;;;12.20;1.00;;;;;;4925898;29;20498;-88
2023/11/14 05:26:24;;;;;;;22.40;5.03;;;12.20;1.00;;;;;;4921888;29;21193;-88
2023/11/14 05:28:50;;;;;;;26.20;4.90;;;12.20;1.00;;;;;;4925370;29;20270;-88
2023/11/14 05:31:15;;;;;;;25.90;6.27;;;12.20;1.00;;;;;;4923546;29;20281;-88
2023/11/14 05:33:41;;;;;;;23.00;5.27;;;12.20;1.00;;;;;;4919922;29;20214;-86
2023/11/14 05:36:07;;;;;;;24.93;5.00;;;12.20;1.00;;;;;;4920679;29;20225;-85
2023/11/14 05:38:32;;;;;;;24.03;4.70;;;12.20;1.00;;;;;;4924196;29;20249;-85
2023/11/14 05:40:58;;;;;;;26.00;6.10;;;12.20;1.00;;;;;;4924608;29;20438;-87
2023/11/14 05:43:24;;;;;;;27.10;5.23;;;12.20;1.00;;;;;;4925588;29;20215;-85
2023/11/14 05:45:50;;;;;;;31.73;5.93;;;12.20;1.00;;;;;;4930684;29;20681;-85
2023/11/14 05:48:19;;;;;;;17.53;5.80;;;12.20;1.00;;;;;;4923345;29;20477;-86
2023/11/14 05:50:46;;;;;;;22.20;4.60;;;12.10;1.00;;;;;;4923207;29;20971;-85
2023/11/14 05:53:11;;;;;;;24.80;5.00;;;12.10;1.00;;;;;;4922132;29;20834;-85
2023/11/14 05:55:37;;;;;;;21.50;4.43;;;12.10;1.00;;;;;;4922944;29;20458;-86
2023/11/14 05:58:02;;;;;;;26.60;4.83;;;12.10;1.00;;;;;;4923636;29;20244;-85
2023/11/14 06:00:28;;;;;;;25.97;5.87;;;12.10;1.00;;;;;;4922321;29;20190;-86
2023/11/14 06:02:54;;;;;;;26.23;5.47;;;12.10;1.00;;;;;;4923064;29;20213;-86
2023/11/14 06:05:20;;;;;;;23.30;5.40;;;12.10;1.00;;;;;;4920807;29;20222;-88
2023/11/14 06:07:45;;;;;;;21.00;5.00;;;12.10;1.00;;;;;;4920854;29;20219;-86
2023/11/14 06:10:11;;;;;;;20.33;4.63;;;12.10;1.00;;;;;;4922550;29;20210;-85
2023/11/14 06:12:39;;;;;;;22.10;6.27;;;12.10;1.00;;;;;;4923709;29;20194;-86
2023/11/14 06:15:07;;;;;;;21.90;5.40;;;12.10;1.00;;;;;;4920588;29;20194;-85
2023/11/14 06:17:32;;;;;;;29.90;6.17;;;12.10;1.00;;;;;;4921932;29;20842;-86
2023/11/14 06:19:58;;;;;;;17.07;4.93;;;12.00;1.00;;;;;;4923401;29;20446;-87
2023/11/14 06:22:23;;;;;;;23.47;6.20;;;12.00;1.00;;;;;;4920175;29;20210;-84
2023/11/14 06:24:49;;;;;;;25.67;4.40;;;12.00;1.00;;;;;;4914843;29;20215;-86
2023/11/14 06:27:15;;;;;;;25.90;4.90;;;12.00;1.00;;;;;;4914637;29;20237;-87
2023/11/14 06:29:40;;;;;;;24.83;5.17;;;12.00;11.90;;;;;;4923177;29;20203;-87
2023/11/14 06:32:06;;;;;;;15.23;4.63;;;12.00;21.70;;;;;;4921976;29;20467;-85
2023/11/14 06:34:32;;;;;;;18.87;5.13;;;12.00;8.00;;;;;;4922778;29;20614;-86
2023/11/14 06:36:57;;;;;;;22.57;5.27;;;12.00;1.00;;;;;;4921805;29;20443;-85
2023/11/14 06:39:23;;;;;;;26.30;5.50;;;12.00;1.00;;;;;;4911529;29;20292;-87
2023/11/14 06:41:51;;;;;;;18.53;5.00;;;12.00;1.00;;;;;;4917542;29;20187;-86
2023/11/14 06:44:20;;;;;;;23.20;4.93;;;12.00;1.00;;;;;;4917579;29;20195;-86
2023/11/14 06:46:46;;;;;;;22.70;4.93;;;11.90;1.00;;;;;;4916261;29;20481;-87
2023/11/14 06:49:12;;;;;;;21.73;4.70;;;11.90;5.20;;;;;;4918178;29;20986;-86
2023/11/14 06:51:38;;;;;;;22.47;5.40;;;12.00;1.00;;;;;;4913622;29;20447;-86
2023/11/14 06:54:04;;;;;;;21.20;4.40;;;12.00;1.00;;;;;;4914744;29;20446;-87
2023/11/14 06:56:29;;;;;;;27.77;6.07;;;12.00;1.00;;;;;;4914022;29;20204;-86
2023/11/14 06:58:55;;;;;;;24.07;6.37;;;12.00;1.00;;;;;;4912724;29;20617;-86
2023/11/14 07:01:21;;;;;;;19.67;4.97;;;12.00;1.00;;;;;;4912774;29;20199;-87
2023/11/14 07:03:46;;;;;;;19.03;4.40;;;12.10;1.00;;;;;;4913232;29;20238;-86
2023/11/14 07:06:12;;;;;;;28.07;5.60;;;12.20;1.00;;;;;;4916894;29;20178;-85
2023/11/14 07:08:39;;;;;;;21.40;4.40;;;12.30;1.00;;;;;;4916902;29;20226;-85
2023/11/14 07:11:05;;;;;;;28.90;5.60;;;12.30;1.00;;;;;;4918978;29;20542;-86
2023/11/14 07:13:30;;;;;;;23.63;5.53;;;12.40;1.00;;;;;;4912502;29;20458;-88
2023/11/14 07:15:56;;;;;;;24.00;5.63;;;12.50;1.00;;;;;;4914968;29;20481;-86
2023/11/14 07:18:21;;;;;;;22.07;4.80;;;12.50;1.00;;;;;;4922870;29;20221;-87
2023/11/14 07:20:48;;;;;;;20.43;4.67;;;12.60;99.90;;;;;;4933835;29;20226;-88
2023/11/14 07:23:14;;;;;;;18.13;4.43;;;12.70;99.90;;;;;;4920181;29;20217;-86
2023/11/14 07:25:43;;;;;;;17.43;4.60;;;13.00;99.90;;;;;;4926032;29;20453;-87
2023/11/14 07:28:10;;;;;;;20.20;4.97;;;13.10;99.90;;;;;;4925908;29;20462;-86
2023/11/14 07:30:36;;;;;;;28.30;6.10;;;13.00;99.90;;;;;;4919114;29;20507;-87
2023/11/14 07:33:02;;;;;;;19.23;4.73;;;12.90;1.00;;;;;;4923086;29;20981;-88
2023/11/14 07:35:28;;;;;;;21.10;5.40;;;12.80;99.90;;;;;;4924040;29;20459;-88
2023/11/14 07:37:53;;;;;;;26.73;6.57;;;12.90;99.90;;;;;;4918907;29;20218;-86
2023/11/14 07:40:20;;;;;;;18.70;4.27;;;12.90;99.90;;;;;;4918580;29;20199;-85
2023/11/14 07:42:46;;;;;;;25.80;6.20;;;12.80;99.90;;;;;;4916181;29;20585;-86
2023/11/14 07:45:11;;;;;;;23.97;5.00;;;12.80;1.00;;;;;;4919060;29;20449;-86
2023/11/14 07:47:37;;;;;;;10.80;4.20;;;12.80;1.00;;;;;;4923214;29;20975;-86
2023/11/14 07:50:04;;;;;;;19.50;4.30;;;12.90;77.60;;;;;;4920237;29;20442;-86
2023/11/14 07:52:30;;;;;;;23.47;5.03;;;13.00;1.00;;;;;;4925028;29;20720;-86
2023/11/14 07:54:57;;;;;;;20.43;4.60;;;13.00;99.90;;;;;;4924227;29;20427;-86
2023/11/14 07:57:23;;;;;;;24.30;4.97;;;13.20;99.90;;;;;;4923457;29;20475;-87
2023/11/14 07:59:49;;;;;;;13.70;3.73;;;13.30;99.90;;;;;;4921274;29;20510;-87
2023/11/14 08:02:15;;;;;;;10.50;3.40;;;13.30;81.90;;;;;;4923612;29;20501;-86
2023/11/14 08:04:40;;;;;;;20.00;3.67;;;13.50;1.00;;;;;;4924383;29;20226;-86
2023/11/14 08:07:07;;;;;;;19.47;4.90;;;13.70;7.00;;;;;;4921077;29;20190;-86
2023/11/14 08:09:33;;;;;;;15.97;5.57;;;14.00;99.90;;;;;;4919579;29;20225;-86
2023/11/14 08:11:58;;;;;;;20.70;4.43;;;14.20;1.00;;;;;;4917235;29;20961;-85
2023/11/14 08:14:24;;;;;;;19.40;4.37;;;14.50;99.90;;;;;;4922812;29;20198;-85
2023/11/14 08:16:49;;;;;;;18.20;4.20;;;14.50;1.00;;;;;;4915489;29;20661;-86
2023/11/14 08:19:15;;;;;;;18.17;5.10;;;14.40;30.00;;;;;;4903084;29;20203;-86
2023/11/14 08:21:41;;;;;;;21.00;5.43;;;14.10;99.90;;;;;;4916422;29;20265;-86
2023/11/14 08:24:06;;;;;;;19.83;4.80;;;13.90;1.00;;;;;;4911994;29;20222;-87
2023/11/14 08:26:32;;;;;;;23.33;4.70;;;13.80;99.90;;;;;;4918097;29;20187;-88
2023/11/14 08:28:57;;;;;;;16.60;3.73;;;13.80;99.90;;;;;;4914908;29;20474;-86
2023/11/14 08:31:23;;;;;;;24.67;4.43;;;13.70;99.90;;;;;;4922708;29;20250;-86
2023/11/14 08:33:48;;;;;;;24.83;5.37;;;13.60;1.00;;;;;;4909458;29;20190;-87
2023/11/14 08:36:14;;;;;;;15.33;3.63;;;13.60;99.90;;;;;;4915763;29;20265;-86
2023/11/14 08:38:41;;;;;;;16.90;5.10;;;13.60;1.00;;;;;;4914500;29;20886;-87
2023/11/14 08:41:06;;;;;;;18.37;3.37;;;13.60;49.30;;;;;;4914070;29;22337;-85
2023/11/14 08:43:32;;;;;;;13.83;4.83;;;13.60;1.00;;;;;;4911143;29;20554;-87
2023/11/14 08:45:58;;;;;;;20.87;5.13;;;13.50;1.00;;;;;;4922975;29;20194;-86
2023/11/14 08:48:24;;;;;;;19.30;5.00;;;13.50;99.90;;;;;;4913953;29;20458;-86
2023/11/14 08:50:49;;;;;;;27.73;5.00;;;13.50;99.90;;;;;;4913897;29;20929;-86
2023/11/14 08:53:16;;;;;;;17.33;4.13;;;13.70;99.90;;;;;;4911993;29;20282;-86
2023/11/14 08:55:41;;;;;;;22.90;4.70;;;13.80;1.00;;;;;;4914720;29;20194;-86
2023/11/14 08:58:07;;;;;;;19.97;4.60;;;14.00;1.00;;;;;;4914319;29;20466;-86
2023/11/14 09:00:32;;;;;;;19.23;5.20;;;14.10;1.00;;;;;;4915567;29;20696;-86
2023/11/14 09:03:01;;;;;;;23.97;4.70;;;14.10;99.90;;;;;;4915936;29;20270;-87
2023/11/14 09:05:28;;;;;;;23.63;4.63;;;14.00;1.00;;;;;;4915588;29;20684;-86
2023/11/14 09:07:53;;;;;;;15.40;4.40;;;13.80;1.00;;;;;;4927445;29;20478;-86
2023/11/14 09:10:19;;;;;;;21.33;4.77;;;13.70;1.00;;;;;;4914107;29;20503;-86
2023/11/14 09:12:45;;;;;;;19.47;5.47;;;13.60;99.90;;;;;;4917121;29;20186;-86
2023/11/14 09:15:13;;;;;;;22.20;4.70;;;13.50;1.00;;;;;;4921166;29;20780;-86
2023/11/14 09:17:39;;;;;;;25.50;4.90;;;13.50;45.60;;;;;;4930232;29;20844;-85
2023/11/14 09:20:05;;;;;;;18.30;4.37;;;13.50;1.00;;;;;;4915408;29;20550;-86
2023/11/14 09:22:31;;;;;;;15.10;4.53;;;13.40;1.00;;;;;;4922322;29;20916;-85
2023/11/14 09:24:56;;;;;;;13.90;4.57;;;13.40;1.00;;;;;;4909339;29;20455;-86
2023/11/14 09:27:25;;;;;;;18.73;4.80;;;13.50;1.00;;;;;;4911050;29;20195;-86
2023/11/14 09:29:51;;;;;;;12.60;3.43;;;13.80;99.90;;;;;;4916776;29;20183;-85
2023/11/14 09:32:19;;;;;;;14.80;4.63;;;14.00;98.30;;;;;;4917888;29;20542;-86
2023/11/14 09:34:45;;;;;;;17.23;3.93;;;14.20;99.90;;;;;;4916940;29;20825;-85
2023/11/14 09:37:11;;;;;;;17.80;4.10;;;14.20;99.90;;;;;;4916257;29;20435;-85
2023/11/14 09:39:37;;;;;;;12.53;3.60;;;14.10;99.90;;;;;;4916430;29;20463;-86
2023/11/14 09:42:04;;;;;;;17.00;5.50;;;14.00;99.90;;;;;;4917942;29;20261;-86
2023/11/14 09:44:29;;;;;;;18.93;3.90;;;13.90;1.00;;;;;;4916662;29;20443;-85
2023/11/14 09:46:56;;;;;;;16.93;3.60;;;13.90;11.50;;;;;;4916843;29;20949;-86
2023/11/14 09:49:22;;;;;;;16.20;3.87;;;13.80;99.90;;;;;;4917140;29;20207;-85
2023/11/14 09:51:50;;;;;;;17.77;4.43;;;13.90;99.90;;;;;;4920917;29;20926;-85
2023/11/14 09:54:17;;;;;;;17.40;4.33;;;13.90;1.00;;;;;;4915676;29;20436;-85
2023/11/14 09:56:48;;;;;;;10.13;3.03;;;13.90;8.40;;;;;;4917046;29;20434;-85
2023/11/14 09:59:14;;;;;;;18.60;4.17;;;13.80;99.90;;;;;;4918524;29;20474;-86
2023/11/14 10:01:43;;;;;;;20.07;4.30;;;13.70;1.00;;;;;;4919703;29;20522;-86
2023/11/14 10:04:10;;;;;;;13.83;3.43;;;13.70;46.80;;;;;;4920572;29;20470;-85
2023/11/14 10:06:42;;;;;;;17.40;4.00;;;13.70;99.90;;;;;;4918319;29;20415;-85
2023/11/14 10:09:09;;;;;;;15.80;3.80;;;13.70;99.90;;;;;;4918197;29;20494;-86
2023/11/14 10:11:48;;;;;;;16.90;2.90;;;13.90;1.00;;;;;;4914183;29;20482;-85
2023/11/14 10:14:14;;;;;;;13.00;4.37;;;13.80;1.00;;;;;;4907531;29;20418;-87
2023/11/14 10:16:40;;;;;;;30.53;4.97;;;13.80;20.70;;;;;;4915419;29;20471;-86
2023/11/14 10:19:14;;;;;;;15.80;2.93;;;13.60;99.90;;;;;;4922329;29;20446;-86
2023/11/14 10:21:40;;;;;;;12.13;3.07;;;13.70;9.70;;;;;;4916359;29;20198;-85
2023/11/14 10:24:14;;;;;;;15.43;4.63;;;13.80;1.00;;;;;;4913171;29;20471;-87
2023/11/14 10:26:53;;;;;;;12.40;3.90;;;13.70;99.90;;;;;;4913958;29;20801;-85
2023/11/14 10:29:23;;;;;;;24.00;4.47;;;13.60;99.90;;;;;;4913006;29;20455;-86
2023/11/14 10:31:50;;;;;;;17.27;3.50;;;13.50;1.00;;;;;;4913704;29;20454;-86
2023/11/14 10:34:27;;;;;;;12.60;4.70;;;13.40;3.50;;;;;;4917951;29;20474;-86
2023/11/14 10:36:54;;;;;;;19.93;5.17;;;13.40;99.90;;;;;;4914065;29;20446;-86
2023/11/14 10:39:20;;;;;;;16.63;4.17;;;13.30;99.90;;;;;;4916401;29;20462;-85
2023/11/14 10:41:46;;;;;;;15.10;3.40;;;13.30;99.90;;;;;;4916095;29;20453;-86
2023/11/14 10:44:13;;;;;;;13.73;4.20;;;13.30;99.90;;;;;;4913799;29;20498;-86
2023/11/14 10:46:52;;;;;;;26.30;4.97;;;13.40;99.90;;;;;;4915656;29;20437;-87
2023/11/14 10:49:19;;;;;;;19.27;3.57;;;13.50;99.90;;;;;;4908897;29;20968;-87
2023/11/14 10:51:47;;;;;;;12.33;4.27;;;13.50;1.00;;;;;;4913581;29;20427;-87
2023/11/14 10:54:13;;;;;;;14.77;3.80;;;13.60;1.00;;;;;;4917070;29;20432;-87
2023/11/14 10:56:39;;;;;;;11.23;3.43;;;13.80;99.90;;;;;;4918034;29;20533;-86
2023/11/14 10:59:10;;;;;;;16.77;5.07;;;14.20;99.90;;;;;;4918024;29;20618;-87
2023/11/14 11:01:36;;;;;;;19.67;4.77;;;14.40;1.00;;;;;;4923633;29;20809;-87
2023/11/14 11:04:04;;;;;;;13.20;3.97;;;14.40;1.00;;;;;;4913270;29;20470;-88
2023/11/14 11:06:31;;;;;;;17.70;3.90;;;14.40;99.90;;;;;;4918611;29;20453;-87
2023/11/14 11:08:58;;;;;;;11.80;3.10;;;14.50;63.50;;;;;;4920080;29;20553;-86
2023/11/14 11:11:28;;;;;;;12.13;3.87;;;14.50;1.00;;;;;;4913888;29;20487;-86
2023/11/14 11:13:56;;;;;;;15.53;4.40;;;14.40;99.90;;;;;;4917604;29;20447;-86
2023/11/14 11:16:54;;;;;;;17.50;4.80;;;14.40;1.00;;;;;;4913580;29;20439;-87
2023/11/14 11:19:30;;;;;;;14.90;4.80;;;14.20;99.90;;;;;;4896607;29;20471;-86
2023/11/14 11:22:13;;;;;;;10.57;3.13;;;14.10;99.90;;;;;;4920546;29;20444;-86
2023/11/14 11:25:17;;;;;;;11.93;4.37;;;14.10;1.00;;;;;;4919415;29;20823;-85
2023/11/14 11:27:43;;;;;;;10.67;3.50;;;14.00;1.00;;;;;;4918181;29;20442;-86
2023/11/14 11:30:12;;;;;;;11.17;3.87;;;13.80;1.00;;;;;;4908784;29;20442;-87
2023/11/14 11:32:40;;;;;;;10.30;3.30;;;13.70;99.90;;;;;;4911695;29;20567;-87
2023/11/14 11:35:18;;;;;;;12.00;3.80;;;13.60;99.90;;;;;;4910935;29;20559;-87
2023/11/14 11:37:49;;;;;;;8.57;3.40;;;13.40;1.00;;;;;;4915789;29;20481;-86
2023/11/14 11:40:17;;;;;;;11.47;2.40;;;13.30;99.90;;;;;;4917575;29;20435;-86
2023/11/14 11:42:43;;;;;;;6.33;2.53;;;13.20;1.00;;;;;;4919047;29;20470;-86
2023/11/14 11:45:27;;;;;;;10.73;2.90;;;13.10;99.90;;;;;;4921545;29;20441;-86
2023/11/14 11:47:54;;;;;;;7.40;2.30;;;13.00;1.00;;;;;;4914875;29;20470;-86
2023/11/14 11:50:33;;;;;;;7.27;2.10;;;12.90;99.90;;;;;;4921921;29;20442;-86
2023/11/14 11:53:04;;;;;;;8.77;2.70;;;13.00;1.00;;;;;;4920631;29;20498;-86
2023/11/14 11:55:39;;;;;;;12.63;2.80;;;13.00;1.00;;;;;;4920751;29;20439;-86
2023/11/14 11:58:07;;;;;;;6.63;2.57;;;13.10;52.70;;;;;;4916950;29;20916;-86
2023/11/14 12:00:33;;;;;;;7.77;1.90;;;13.10;13.60;;;;;;4917367;29;20450;-87
2023/11/14 12:03:02;;;;;;;9.27;2.53;;;13.10;1.00;;;;;;4918513;29;21039;-86
2023/11/14 12:05:28;;;;;;;13.23;2.60;;;13.00;99.90;;;;;;4920372;29;20513;-86
2023/11/14 12:07:55;;;;;;;16.07;3.90;;;13.00;99.90;;;;;;4917082;29;20474;-86
2023/11/14 12:10:21;;;;;;;17.67;4.00;;;12.90;1.00;;;;;;4922148;29;20466;-86
2023/11/14 12:12:50;;;;;;;13.23;4.20;;;12.80;1.00;;;;;;4922782;29;20956;-86
2023/11/14 12:15:16;;;;;;;19.83;4.40;;;12.70;1.00;;;;;;4922228;29;20718;-86
2023/11/14 12:17:55;;;;;;;14.30;4.00;;;12.60;1.00;;;;;;4923959;29;20454;-86
2023/11/14 12:20:22;;;;;;;16.83;4.63;;;12.50;1.00;;;;;;4922320;29;20442;-87
2023/11/14 12:22:52;;;;;;;9.00;3.00;;;12.40;1.00;;;;;;4924104;29;20538;-86
2023/11/14 12:25:21;;;;;;;15.20;3.47;;;12.20;1.00;;;;;;4924398;29;20439;-85
2023/11/14 12:27:58;;;;;;;6.37;2.47;;;12.20;1.00;;;;;;4922762;29;20474;-85
2023/11/14 12:30:24;;;;;;;8.27;2.07;;;12.10;1.00;;;;;;4924789;29;20469;-85
2023/11/14 12:33:04;;;;;;;7.30;2.77;;;12.00;1.00;;;;;;4924937;29;20462;-85
2023/11/14 12:35:55;;;;;;;8.50;2.50;;;12.00;1.00;;;;;;4924315;29;20466;-86
2023/11/14 12:38:37;;;;;;;6.07;1.70;;;12.00;1.00;;;;;;4922632;29;20787;-85
2023/11/14 12:41:35;;;;;;;6.00;2.23;;;12.00;1.00;;;;;;4925018;29;20513;-86
2023/11/14 12:44:03;;;;;;;8.03;2.00;;;11.90;1.00;;;;;;4919913;29;20515;-86